createdAt,value
2019-05-19T00:00:52.151Z,21.50
2019-05-19T00:01:54.687Z,21.45
2019-05-19T00:02:57.201Z,21.40
2019-05-19T00:04:01.293Z,21.43
2019-05-19T00:05:05.355Z,21.45
2019-05-19T00:06:08.306Z,21.46
2019-05-19T00:07:10.280Z,21.37
2019-05-19T00:08:13.199Z,21.38
2019-05-19T00:09:16.703Z,21.44
2019-05-19T00:10:19.534Z,21.52
2019-05-19T00:11:22.348Z,21.60
2019-05-19T00:12:26.687Z,21.66
2019-05-19T00:13:29.515Z,21.71
2019-05-19T00:14:32.272Z,21.76
2019-05-19T00:15:36.892Z,21.70
2019-05-19T00:16:39.256Z,21.70
2019-05-19T00:17:41.702Z,21.69
2019-05-19T00:18:45.938Z,21.68
2019-05-19T00:19:48.653Z,21.69
2019-05-19T00:20:51.216Z,21.74
2019-05-19T00:21:53.648Z,21.78
2019-05-19T00:22:56.556Z,21.85
2019-05-19T00:23:59.885Z,21.85
2019-05-19T00:25:02.858Z,21.79
2019-05-19T00:26:07.258Z,21.83
2019-05-19T00:27:09.977Z,21.70
2019-05-19T00:28:13.108Z,21.56
2019-05-19T00:29:15.590Z,21.62
2019-05-19T00:30:19.964Z,21.53
2019-05-19T00:31:22.512Z,21.53
2019-05-19T00:32:25.125Z,21.48
2019-05-19T00:33:27.798Z,21.59
2019-05-19T00:34:29.940Z,21.69
2019-05-19T00:35:33.294Z,21.73
2019-05-19T00:36:35.965Z,21.81
2019-05-19T00:37:39.363Z,21.92
2019-05-19T00:38:42.281Z,21.90
2019-05-19T00:39:45.636Z,21.96
2019-05-19T00:40:48.440Z,21.92
2019-05-19T00:41:51.179Z,21.95
2019-05-19T00:42:53.395Z,22.02
2019-05-19T00:43:55.912Z,21.98
2019-05-19T00:44:58.281Z,22.06
2019-05-19T00:46:00.474Z,22.05
2019-05-19T00:47:04.581Z,22.11
2019-05-19T00:48:07.475Z,22.20
2019-05-19T00:49:09.440Z,22.31
2019-05-19T00:50:13.704Z,22.35
2019-05-19T00:51:16.474Z,22.32
2019-05-19T00:52:18.726Z,22.37
2019-05-19T00:53:21.730Z,22.42
2019-05-19T00:54:24.874Z,22.50
2019-05-19T00:55:28.857Z,22.47
2019-05-19T00:56:32.375Z,22.43
2019-05-19T00:57:37.221Z,22.43
2019-05-19T00:58:40.870Z,22.42
2019-05-19T00:59:44.722Z,22.46
2019-05-19T01:00:46.505Z,22.45
2019-05-19T01:01:49.424Z,22.36
2019-05-19T01:02:54.066Z,22.21
2019-05-19T01:03:55.814Z,21.97
2019-05-19T01:04:58.451Z,22.00
2019-05-19T01:06:01.159Z,21.99
2019-05-19T01:07:03.349Z,22.03
2019-05-19T01:08:09.707Z,21.99
2019-05-19T01:09:13.246Z,21.98
2019-05-19T01:10:17.604Z,21.98
2019-05-19T01:11:20.156Z,21.80
2019-05-19T01:12:22.112Z,21.76
2019-05-19T01:13:24.981Z,21.62
2019-05-19T01:14:27.722Z,21.53
2019-05-19T01:15:30.531Z,21.51
2019-05-19T01:16:32.953Z,21.40
2019-05-19T01:17:35.487Z,21.41
2019-05-19T01:18:37.837Z,21.38
2019-05-19T01:19:40.271Z,21.40
2019-05-19T01:20:42.957Z,21.41
2019-05-19T01:21:44.874Z,21.41
2019-05-19T01:22:47.711Z,21.28
2019-05-19T01:23:50.188Z,21.25
2019-05-19T01:24:52.394Z,21.38
2019-05-19T01:25:54.723Z,21.29
2019-05-19T01:26:57.037Z,21.36
2019-05-19T01:27:59.038Z,21.39
2019-05-19T01:29:01.673Z,21.40
2019-05-19T01:30:07.847Z,21.32
2019-05-19T01:31:10.824Z,21.43
2019-05-19T01:32:13.454Z,21.37
2019-05-19T01:33:16.414Z,21.39
2019-05-19T01:34:18.548Z,21.40
2019-05-19T01:35:20.918Z,21.34
2019-05-19T01:36:23.574Z,21.43
2019-05-19T01:37:26.154Z,21.51
2019-05-19T01:38:28.632Z,21.52
2019-05-19T01:39:31.665Z,21.61
2019-05-19T01:40:34.191Z,21.64
2019-05-19T01:41:37.065Z,21.55
2019-05-19T01:42:39.504Z,21.39
2019-05-19T01:43:42.493Z,21.35
2019-05-19T01:44:46.222Z,21.38
2019-05-19T01:45:47.878Z,21.27
2019-05-19T01:46:49.929Z,21.09
2019-05-19T01:47:52.724Z,21.08
2019-05-19T01:48:55.381Z,21.05
2019-05-19T01:50:16.579Z,20.91
2019-05-19T01:51:02.221Z,20.92
2019-05-19T01:52:07.355Z,20.91
2019-05-19T01:53:09.709Z,20.86
2019-05-19T01:54:12.237Z,20.78
2019-05-19T01:55:14.227Z,20.52
2019-05-19T01:56:16.821Z,20.50
2019-05-19T01:57:19.104Z,20.36
2019-05-19T01:58:23.254Z,20.31
2019-05-19T01:59:25.708Z,20.20
2019-05-19T02:00:28.167Z,20.16
2019-05-19T02:01:30.867Z,20.19
2019-05-19T02:02:33.746Z,20.11
2019-05-19T02:03:36.259Z,20.08
2019-05-19T02:04:38.668Z,19.90
2019-05-19T02:05:41.073Z,20.00
2019-05-19T02:06:44.571Z,19.88
2019-05-19T02:07:47.334Z,19.90
2019-05-19T02:08:49.938Z,19.83
2019-05-19T02:09:52.523Z,19.80
2019-05-19T02:10:54.980Z,19.77
2019-05-19T02:11:57.467Z,19.71
2019-05-19T02:12:59.694Z,19.78
2019-05-19T02:14:02.474Z,19.79
2019-05-19T02:15:07.313Z,19.83
2019-05-19T02:16:11.417Z,19.75
2019-05-19T02:17:14.166Z,19.80
2019-05-19T02:18:17.052Z,19.56
2019-05-19T02:19:19.651Z,19.57
2019-05-19T02:20:32.671Z,19.56
2019-05-19T02:21:25.901Z,19.57
2019-05-19T02:22:28.852Z,19.48
2019-05-19T02:23:31.738Z,19.44
2019-05-19T02:24:35.649Z,19.23
2019-05-19T02:25:37.428Z,19.25
2019-05-19T02:26:40.281Z,19.19
2019-05-19T02:27:43.143Z,19.28
2019-05-19T02:28:45.561Z,19.36
2019-05-19T02:29:47.951Z,19.54
2019-05-19T02:30:50.660Z,19.65
2019-05-19T02:31:53.493Z,19.67
2019-05-19T02:32:57.890Z,19.68
2019-05-19T02:34:00.074Z,19.80
2019-05-19T02:35:04.732Z,19.68
2019-05-19T02:36:07.056Z,19.83
2019-05-19T02:37:09.559Z,19.82
2019-05-19T02:38:12.574Z,19.89
2019-05-19T02:39:14.978Z,19.91
2019-05-19T02:40:17.564Z,20.03
2019-05-19T02:41:23.184Z,19.95
2019-05-19T02:42:27.965Z,19.96
2019-05-19T02:43:31.526Z,19.87
2019-05-19T02:44:37.007Z,19.79
2019-05-19T02:45:40.028Z,19.71
2019-05-19T02:46:43.706Z,19.59
2019-05-19T02:47:48.959Z,19.52
2019-05-19T02:48:52.739Z,19.55
2019-05-19T02:49:57.272Z,19.74
2019-05-19T02:51:02.668Z,19.74
2019-05-19T02:52:06.582Z,19.79
2019-05-19T02:53:11.223Z,19.78
2019-05-19T02:54:14.461Z,19.82
2019-05-19T02:55:17.915Z,19.75
2019-05-19T02:56:21.236Z,19.76
2019-05-19T02:57:23.444Z,19.71
2019-05-19T02:58:26.387Z,19.72
2019-05-19T02:59:31.039Z,19.71
2019-05-19T03:00:41.030Z,19.76
2019-05-19T03:02:03.460Z,19.69
2019-05-19T03:03:06.742Z,19.54
2019-05-19T03:04:09.264Z,19.56
2019-05-19T03:05:12.774Z,19.49
2019-05-19T03:06:15.304Z,19.48
2019-05-19T03:07:18.154Z,19.59
2019-05-19T03:08:20.505Z,19.63
2019-05-19T03:09:23.155Z,19.70
2019-05-19T03:10:25.545Z,19.65
2019-05-19T03:11:29.387Z,19.71
2019-05-19T03:12:31.883Z,19.79
2019-05-19T03:13:35.186Z,19.83
2019-05-19T03:14:37.645Z,19.77
2019-05-19T03:15:39.408Z,19.71
2019-05-19T03:16:42.069Z,19.61
2019-05-19T03:17:44.589Z,19.50
2019-05-19T03:18:46.977Z,19.42
2019-05-19T03:19:49.467Z,19.41
2019-05-19T03:21:09.828Z,19.34
2019-05-19T03:21:57.384Z,19.38
2019-05-19T03:23:00.154Z,19.30
2019-05-19T03:24:04.632Z,19.33
2019-05-19T03:25:06.833Z,19.32
2019-05-19T03:26:09.621Z,19.28
2019-05-19T03:27:12.468Z,19.40
2019-05-19T03:28:15.052Z,19.38
2019-05-19T03:29:20.226Z,19.30
2019-05-19T03:30:28.244Z,19.26
2019-05-19T03:31:32.905Z,19.27
2019-05-19T03:32:37.330Z,19.18
2019-05-19T03:33:44.761Z,19.17
2019-05-19T03:34:47.784Z,19.07
2019-05-19T03:35:50.275Z,19.13
2019-05-19T03:36:52.335Z,19.30
2019-05-19T03:37:56.695Z,19.32
2019-05-19T03:38:59.281Z,19.31
2019-05-19T03:40:03.381Z,19.39
2019-05-19T03:41:06.184Z,19.32
2019-05-19T03:42:10.533Z,19.39
2019-05-19T03:43:13.106Z,19.43
2019-05-19T03:44:15.636Z,19.42
2019-05-19T03:45:18.725Z,19.49
2019-05-19T03:46:21.464Z,19.44
2019-05-19T03:47:24.322Z,19.45
2019-05-19T03:48:27.149Z,19.36
2019-05-19T03:49:29.525Z,19.26
2019-05-19T03:50:32.058Z,19.29
2019-05-19T03:51:33.749Z,19.26
2019-05-19T03:52:38.586Z,19.24
2019-05-19T03:53:40.921Z,19.26
2019-05-19T03:54:42.617Z,19.28
2019-05-19T03:55:44.939Z,19.26
2019-05-19T03:56:47.649Z,19.28
2019-05-19T03:57:50.504Z,19.31
2019-05-19T03:58:52.863Z,19.41
2019-05-19T03:59:55.267Z,19.40
2019-05-19T04:00:57.928Z,19.44
2019-05-19T04:02:00.283Z,19.49
2019-05-19T04:03:02.842Z,19.46
2019-05-19T04:04:04.727Z,19.51
2019-05-19T04:05:07.785Z,19.50
2019-05-19T04:06:11.213Z,19.51
2019-05-19T04:07:13.881Z,19.58
2019-05-19T04:08:16.149Z,19.62
2019-05-19T04:09:17.898Z,19.57
2019-05-19T04:10:20.541Z,19.61
2019-05-19T04:11:24.974Z,19.55
2019-05-19T04:12:27.356Z,19.71
2019-05-19T04:13:29.869Z,19.84
2019-05-19T04:14:32.857Z,19.87
2019-05-19T04:15:34.883Z,19.92
2019-05-19T04:16:37.183Z,19.87
2019-05-19T04:17:39.833Z,19.85
2019-05-19T04:18:42.241Z,19.77
2019-05-19T04:19:46.714Z,19.81
2019-05-19T04:20:50.530Z,19.86
2019-05-19T04:21:53.153Z,19.94
2019-05-19T04:22:55.884Z,20.02
2019-05-19T04:23:58.187Z,20.17
2019-05-19T04:24:59.945Z,20.20
2019-05-19T04:26:03.133Z,20.26
2019-05-19T04:27:05.819Z,20.33
2019-05-19T04:28:08.398Z,20.37
2019-05-19T04:29:10.861Z,20.34
2019-05-19T04:30:14.422Z,20.14
2019-05-19T04:31:17.225Z,20.01
2019-05-19T04:32:19.577Z,19.98
2019-05-19T04:33:22.300Z,19.99
2019-05-19T04:34:24.924Z,20.00
2019-05-19T04:35:27.682Z,20.09
2019-05-19T04:36:30.228Z,20.06
2019-05-19T04:37:33.042Z,20.18
2019-05-19T04:38:35.371Z,20.39
2019-05-19T04:39:37.821Z,20.57
2019-05-19T04:40:41.765Z,20.60
2019-05-19T04:41:45.010Z,20.79
2019-05-19T04:42:47.744Z,20.85
2019-05-19T04:43:49.817Z,21.09
2019-05-19T04:44:52.283Z,21.27
2019-05-19T04:45:54.326Z,21.40
2019-05-19T04:46:57.112Z,21.54
2019-05-19T04:47:59.711Z,21.71
2019-05-19T04:49:02.100Z,21.83
2019-05-19T04:50:05.876Z,21.95
2019-05-19T04:51:08.344Z,21.86
2019-05-19T04:52:10.045Z,21.97
2019-05-19T04:53:12.965Z,22.15
2019-05-19T04:54:15.065Z,22.29
2019-05-19T04:55:18.179Z,22.33
2019-05-19T04:56:20.640Z,22.48
2019-05-19T04:57:23.149Z,22.59
2019-05-19T04:58:25.304Z,22.64
2019-05-19T04:59:27.832Z,22.46
2019-05-19T05:00:30.813Z,22.57
2019-05-19T05:01:37.093Z,22.56
2019-05-19T05:02:39.962Z,22.60
2019-05-19T05:03:41.861Z,22.75
2019-05-19T05:04:45.715Z,22.79
2019-05-19T05:05:48.199Z,22.97
2019-05-19T05:06:50.837Z,22.91
2019-05-19T05:07:53.314Z,23.01
2019-05-19T05:08:56.094Z,23.08
2019-05-19T05:09:58.205Z,23.08
2019-05-19T05:11:01.622Z,23.00
2019-05-19T05:12:04.710Z,22.97
2019-05-19T05:13:08.387Z,22.96
2019-05-19T05:14:11.069Z,23.08
2019-05-19T05:15:14.786Z,23.22
2019-05-19T05:16:17.336Z,23.25
2019-05-19T05:17:19.917Z,23.37
2019-05-19T05:18:25.389Z,23.48
2019-05-19T05:19:29.783Z,23.61
2019-05-19T05:20:32.177Z,23.57
2019-05-19T05:21:35.170Z,23.47
2019-05-19T05:22:39.713Z,23.38
2019-05-19T05:23:42.827Z,23.31
2019-05-19T05:24:44.528Z,23.28
2019-05-19T05:25:48.248Z,23.37
2019-05-19T05:26:50.822Z,23.42
2019-05-19T05:27:52.597Z,23.45
2019-05-19T05:28:55.627Z,23.31
2019-05-19T05:29:58.034Z,23.37
2019-05-19T05:31:00.777Z,23.46
2019-05-19T05:32:05.337Z,23.52
2019-05-19T05:33:07.603Z,23.39
2019-05-19T05:34:10.357Z,23.49
2019-05-19T05:35:13.864Z,23.39
2019-05-19T05:36:16.895Z,23.49
2019-05-19T05:37:19.375Z,23.52
2019-05-19T05:38:22.136Z,23.34
2019-05-19T05:39:24.288Z,23.36
2019-05-19T05:40:27.696Z,23.32
2019-05-19T05:41:32.103Z,23.27
2019-05-19T05:42:34.700Z,23.13
2019-05-19T05:43:37.731Z,23.02
2019-05-19T05:44:40.681Z,22.94
2019-05-19T05:45:42.775Z,22.89
2019-05-19T05:46:45.222Z,22.81
2019-05-19T05:47:47.809Z,22.80
2019-05-19T05:48:51.913Z,22.78
2019-05-19T05:49:57.075Z,22.80
2019-05-19T05:50:59.778Z,22.81
2019-05-19T05:52:01.733Z,22.67
2019-05-19T05:53:04.534Z,22.68
2019-05-19T05:54:07.409Z,22.69
2019-05-19T05:55:09.900Z,22.61
2019-05-19T05:56:12.581Z,22.61
2019-05-19T05:57:14.876Z,22.64
2019-05-19T05:58:17.518Z,22.56
2019-05-19T05:59:20.111Z,22.62
2019-05-19T06:00:21.921Z,22.59
2019-05-19T06:01:24.611Z,22.75
2019-05-19T06:02:28.097Z,22.80
2019-05-19T06:03:30.638Z,22.83
2019-05-19T06:04:34.195Z,22.79
2019-05-19T06:05:36.585Z,22.79
2019-05-19T06:06:40.127Z,22.75
2019-05-19T06:07:42.783Z,22.63
2019-05-19T06:08:45.410Z,22.63
2019-05-19T06:09:47.988Z,22.43
2019-05-19T06:10:50.930Z,22.34
2019-05-19T06:11:53.257Z,22.24
2019-05-19T06:12:55.500Z,21.98
2019-05-19T06:13:58.301Z,21.99
2019-05-19T06:15:01.236Z,21.96
2019-05-19T06:16:04.550Z,21.96
2019-05-19T06:17:09.329Z,21.69
2019-05-19T06:18:12.676Z,21.76
2019-05-19T06:19:15.990Z,21.91
2019-05-19T06:20:19.141Z,21.98
2019-05-19T06:21:22.012Z,22.03
2019-05-19T06:22:24.433Z,22.13
2019-05-19T06:23:27.195Z,22.25
2019-05-19T06:24:30.176Z,22.25
2019-05-19T06:25:33.888Z,22.18
2019-05-19T06:26:36.663Z,21.93
2019-05-19T06:27:39.287Z,22.02
2019-05-19T06:28:41.997Z,21.85
2019-05-19T06:29:44.819Z,22.02
2019-05-19T06:30:47.781Z,21.97
2019-05-19T06:31:50.527Z,22.01
2019-05-19T06:32:55.246Z,21.79
2019-05-19T06:33:57.570Z,21.84
2019-05-19T06:35:00.009Z,21.79
2019-05-19T06:36:03.534Z,21.69
2019-05-19T06:37:06.565Z,21.62
2019-05-19T06:38:09.515Z,21.71
2019-05-19T06:39:11.284Z,21.71
2019-05-19T06:40:14.775Z,21.78
2019-05-19T06:41:17.231Z,21.71
2019-05-19T06:42:21.450Z,21.84
2019-05-19T06:43:24.160Z,21.89
2019-05-19T06:44:26.895Z,22.05
2019-05-19T06:45:29.094Z,22.14
2019-05-19T06:46:31.685Z,22.18
2019-05-19T06:47:34.483Z,22.25
2019-05-19T06:48:37.249Z,22.33
2019-05-19T06:49:40.286Z,22.24
2019-05-19T06:50:42.836Z,22.32
2019-05-19T06:51:45.028Z,22.35
2019-05-19T06:52:47.543Z,22.35
2019-05-19T06:53:49.901Z,22.46
2019-05-19T06:54:51.531Z,22.64
2019-05-19T06:55:54.316Z,22.70
2019-05-19T06:56:56.582Z,22.79
2019-05-19T06:57:59.032Z,22.80
2019-05-19T06:59:01.714Z,22.86
2019-05-19T07:00:05.722Z,22.89
2019-05-19T07:01:08.566Z,22.95
2019-05-19T07:02:11.037Z,22.99
2019-05-19T07:03:13.738Z,22.99
2019-05-19T07:04:16.408Z,22.90
2019-05-19T07:05:19.058Z,23.03
2019-05-19T07:06:22.638Z,23.12
2019-05-19T07:07:25.071Z,23.23
2019-05-19T07:08:27.415Z,23.25
2019-05-19T07:09:29.751Z,23.26
2019-05-19T07:10:32.157Z,23.35
2019-05-19T07:11:34.687Z,23.34
2019-05-19T07:12:38.444Z,23.40
2019-05-19T07:13:40.989Z,23.39
2019-05-19T07:14:43.855Z,23.37
2019-05-19T07:15:46.048Z,23.41
2019-05-19T07:16:48.448Z,23.46
2019-05-19T07:17:51.016Z,23.51
2019-05-19T07:18:55.959Z,23.51
2019-05-19T07:19:58.494Z,23.41
2019-05-19T07:21:01.567Z,23.31
2019-05-19T07:22:04.968Z,23.21
2019-05-19T07:23:07.900Z,22.90
2019-05-19T07:24:12.726Z,22.96
2019-05-19T07:25:14.828Z,22.94
2019-05-19T07:26:19.969Z,22.76
2019-05-19T07:27:22.977Z,22.77
2019-05-19T07:28:26.189Z,22.81
2019-05-19T07:29:29.311Z,22.88
2019-05-19T07:30:31.918Z,22.86
2019-05-19T07:31:35.530Z,22.76
2019-05-19T07:32:38.218Z,22.73
2019-05-19T07:33:40.854Z,22.68
2019-05-19T07:34:43.520Z,22.83
2019-05-19T07:35:47.428Z,22.93
2019-05-19T07:36:51.826Z,23.01
2019-05-19T07:37:54.826Z,23.08
2019-05-19T07:38:57.462Z,23.19
2019-05-19T07:39:59.213Z,23.24
2019-05-19T07:41:02.186Z,23.20
2019-05-19T07:42:05.830Z,23.23
2019-05-19T07:43:08.324Z,23.23
2019-05-19T07:44:11.216Z,23.34
2019-05-19T07:45:14.284Z,23.31
2019-05-19T07:46:16.434Z,23.23
2019-05-19T07:47:19.017Z,22.91
2019-05-19T07:48:22.100Z,22.95
2019-05-19T07:49:24.385Z,23.01
2019-05-19T07:50:27.401Z,22.94
2019-05-19T07:51:30.065Z,22.97
2019-05-19T07:52:32.802Z,22.95
2019-05-19T07:53:42.870Z,22.97
2019-05-19T07:54:43.317Z,22.88
2019-05-19T07:55:47.251Z,22.89
2019-05-19T07:56:50.010Z,22.80
2019-05-19T07:57:52.673Z,22.91
2019-05-19T07:58:56.256Z,23.04
2019-05-19T07:59:59.097Z,23.14
2019-05-19T08:01:01.531Z,23.11
2019-05-19T08:02:05.803Z,23.23
2019-05-19T08:03:08.294Z,23.28
2019-05-19T08:04:09.985Z,23.33
2019-05-19T08:05:12.619Z,23.29
2019-05-19T08:06:15.353Z,23.39
2019-05-19T08:07:18.190Z,23.44
2019-05-19T08:08:22.764Z,23.44
2019-05-19T08:09:25.272Z,23.36
2019-05-19T08:10:27.804Z,23.42
2019-05-19T08:11:30.336Z,23.56
2019-05-19T08:12:32.708Z,23.60
2019-05-19T08:13:37.613Z,23.60
2019-05-19T08:14:40.156Z,23.67
2019-05-19T08:15:46.171Z,23.78
2019-05-19T08:16:48.492Z,23.80
2019-05-19T08:17:51.675Z,23.89
2019-05-19T08:18:53.519Z,23.88
2019-05-19T08:19:56.321Z,23.94
2019-05-19T08:20:59.611Z,23.87
2019-05-19T08:22:01.463Z,23.99
2019-05-19T08:23:04.451Z,23.96
2019-05-19T08:24:07.668Z,23.97
2019-05-19T08:25:11.221Z,23.86
2019-05-19T08:26:14.199Z,23.74
2019-05-19T08:27:16.501Z,23.86
2019-05-19T08:28:19.011Z,23.92
2019-05-19T08:29:22.275Z,23.87
2019-05-19T08:30:25.033Z,23.83
2019-05-19T08:31:28.046Z,23.92
2019-05-19T08:32:30.620Z,23.95
2019-05-19T08:33:33.118Z,23.74
2019-05-19T08:34:36.048Z,23.85
2019-05-19T08:35:38.715Z,23.57
2019-05-19T08:36:40.595Z,23.73
2019-05-19T08:37:44.754Z,23.86
2019-05-19T08:38:47.062Z,23.90
2019-05-19T08:39:49.666Z,24.00
2019-05-19T08:40:53.394Z,24.08
2019-05-19T08:41:56.021Z,24.16
2019-05-19T08:42:57.742Z,24.26
2019-05-19T08:44:03.682Z,24.31
2019-05-19T08:45:07.944Z,24.33
2019-05-19T08:46:12.840Z,24.41
2019-05-19T08:47:15.638Z,24.46
2019-05-19T08:48:18.591Z,24.37
2019-05-19T08:49:21.598Z,24.34
2019-05-19T08:50:24.369Z,24.27
2019-05-19T08:51:27.105Z,24.36
2019-05-19T08:52:29.512Z,24.34
2019-05-19T08:53:33.907Z,24.40
2019-05-19T08:54:39.176Z,24.45
2019-05-19T08:55:41.981Z,24.39
2019-05-19T08:56:46.621Z,24.36
2019-05-19T08:57:49.419Z,24.42
2019-05-19T08:58:51.816Z,24.40
2019-05-19T08:59:54.535Z,24.09
2019-05-19T09:00:56.550Z,24.17
2019-05-19T09:01:59.386Z,24.25
2019-05-19T09:03:03.033Z,24.34
2019-05-19T09:04:05.926Z,24.47
2019-05-19T09:05:09.052Z,24.51
2019-05-19T09:06:12.269Z,24.56
2019-05-19T09:07:14.604Z,24.63
2019-05-19T09:08:17.681Z,24.53
2019-05-19T09:09:22.020Z,24.55
2019-05-19T09:10:25.670Z,24.65
2019-05-19T09:11:28.481Z,24.70
2019-05-19T09:12:31.188Z,24.76
2019-05-19T09:13:34.557Z,24.73
2019-05-19T09:14:38.951Z,24.74
2019-05-19T09:15:42.671Z,24.79
2019-05-19T09:16:46.365Z,24.85
2019-05-19T09:17:49.767Z,24.81
2019-05-19T09:18:51.521Z,24.90
2019-05-19T09:19:55.169Z,24.94
2019-05-19T09:20:57.500Z,24.97
2019-05-19T09:21:59.295Z,24.91
2019-05-19T09:23:02.963Z,24.97
2019-05-19T09:24:06.177Z,24.81
2019-05-19T09:25:09.514Z,24.76
2019-05-19T09:26:12.374Z,24.85
2019-05-19T09:27:15.517Z,24.90
2019-05-19T09:28:18.385Z,24.80
2019-05-19T09:29:20.870Z,24.70
2019-05-19T09:30:24.705Z,24.82
2019-05-19T09:31:27.100Z,24.86
2019-05-19T09:32:30.367Z,24.80
2019-05-19T09:33:32.678Z,24.76
2019-05-19T09:34:35.738Z,24.63
2019-05-19T09:35:38.979Z,24.62
2019-05-19T09:36:41.045Z,24.41
2019-05-19T09:37:43.972Z,24.38
2019-05-19T09:38:46.466Z,24.23
2019-05-19T09:39:48.757Z,24.27
2019-05-19T09:40:51.040Z,24.22
2019-05-19T09:41:53.712Z,24.26
2019-05-19T09:42:56.904Z,23.97
2019-05-19T09:43:59.909Z,24.04
2019-05-19T09:45:07.528Z,24.15
2019-05-19T09:46:09.820Z,24.17
2019-05-19T09:47:14.190Z,24.31
2019-05-19T09:48:16.857Z,24.35
2019-05-19T09:49:32.262Z,24.54
2019-05-19T09:50:34.798Z,24.67
2019-05-19T09:51:37.084Z,24.77
2019-05-19T09:52:41.981Z,24.86
2019-05-19T09:53:44.553Z,24.95
2019-05-19T09:54:47.249Z,25.04
2019-05-19T09:55:51.940Z,25.07
2019-05-19T09:56:56.083Z,25.01
2019-05-19T09:57:58.123Z,25.00
2019-05-19T09:59:01.173Z,24.83
2019-05-19T10:00:06.163Z,24.87
2019-05-19T10:01:09.163Z,24.91
2019-05-19T10:02:13.167Z,25.00
2019-05-19T10:03:15.595Z,25.04
2019-05-19T10:04:17.420Z,25.18
2019-05-19T10:05:19.997Z,25.18
2019-05-19T10:06:22.400Z,25.27
2019-05-19T10:07:26.305Z,25.20
2019-05-19T10:08:30.513Z,24.64
2019-05-19T10:10:02.701Z,24.37
2019-05-19T10:11:30.157Z,24.35
2019-05-19T10:12:34.133Z,24.42
2019-05-19T10:13:37.846Z,24.61
2019-05-19T10:14:40.916Z,24.68
2019-05-19T10:15:44.389Z,24.81
2019-05-19T10:16:47.369Z,24.96
2019-05-19T10:17:50.231Z,25.12
2019-05-19T10:18:52.902Z,25.07
2019-05-19T10:19:55.501Z,25.05
2019-05-19T10:20:59.257Z,25.04
2019-05-19T10:22:01.553Z,25.08
2019-05-19T10:23:05.617Z,25.12
2019-05-19T10:24:08.031Z,24.97
2019-05-19T10:25:21.587Z,24.70
2019-05-19T10:26:16.024Z,24.78
2019-05-19T10:27:21.627Z,24.68
2019-05-19T10:28:22.791Z,24.51
2019-05-19T10:29:25.222Z,24.31
2019-05-19T10:30:28.018Z,24.20
2019-05-19T10:31:30.732Z,24.16
2019-05-19T10:32:33.227Z,24.06
2019-05-19T10:33:36.103Z,23.86
2019-05-19T10:34:41.911Z,23.74
2019-05-19T10:35:44.919Z,23.88
2019-05-19T10:36:49.139Z,24.15
2019-05-19T10:37:51.697Z,24.29
2019-05-19T10:38:56.623Z,24.43
2019-05-19T10:40:00.271Z,24.50
2019-05-19T10:41:04.096Z,24.40
2019-05-19T10:42:07.181Z,24.48
2019-05-19T10:43:09.384Z,24.53
2019-05-19T10:44:12.742Z,24.66
2019-05-19T10:45:14.940Z,24.62
2019-05-19T10:46:19.906Z,24.50
2019-05-19T10:47:22.441Z,24.53
2019-05-19T10:48:24.905Z,24.63
2019-05-19T10:49:27.277Z,24.58
2019-05-19T10:50:29.988Z,24.45
2019-05-19T10:51:31.708Z,24.42
2019-05-19T10:52:35.719Z,24.41
2019-05-19T10:53:38.688Z,24.41
2019-05-19T10:54:41.593Z,24.46
2019-05-19T10:55:45.372Z,24.54
2019-05-19T10:56:48.117Z,24.64
2019-05-19T10:57:51.306Z,24.79
2019-05-19T10:58:54.088Z,24.96
2019-05-19T10:59:56.588Z,25.00
2019-05-19T11:01:00.104Z,25.12
2019-05-19T11:02:03.506Z,25.15
2019-05-19T11:03:09.100Z,25.17
2019-05-19T11:04:12.146Z,25.16
2019-05-19T11:05:15.101Z,25.16
2019-05-19T11:06:19.938Z,25.18
2019-05-19T11:07:23.412Z,25.20
2019-05-19T11:08:28.155Z,25.23
2019-05-19T11:09:31.272Z,25.24
2019-05-19T11:10:33.694Z,25.28
2019-05-19T11:11:36.092Z,25.33
2019-05-19T11:12:38.324Z,25.31
2019-05-19T11:13:42.323Z,25.31
2019-05-19T11:14:47.557Z,25.33
2019-05-19T11:15:52.344Z,25.26
2019-05-19T11:16:54.514Z,25.31
2019-05-19T11:17:58.923Z,25.32
2019-05-19T11:19:00.786Z,25.42
2019-05-19T11:20:05.862Z,25.42
2019-05-19T11:21:10.036Z,25.47
2019-05-19T11:22:12.817Z,25.51
2019-05-19T11:23:24.654Z,25.55
2019-05-19T11:24:27.190Z,25.46
2019-05-19T11:25:33.968Z,25.49
2019-05-19T11:26:34.132Z,25.59
2019-05-19T11:27:37.035Z,25.57
2019-05-19T11:28:41.276Z,25.40
2019-05-19T11:29:44.519Z,25.34
2019-05-19T11:30:47.883Z,25.36
2019-05-19T11:31:51.483Z,25.36
2019-05-19T11:32:53.810Z,25.29
2019-05-19T11:33:57.331Z,25.37
2019-05-19T11:35:00.702Z,25.30
2019-05-19T11:36:03.464Z,25.26
2019-05-19T11:37:07.473Z,25.17
2019-05-19T11:38:10.980Z,25.04
2019-05-19T11:39:14.041Z,25.02
2019-05-19T11:40:16.514Z,25.12
2019-05-19T11:41:20.180Z,25.22
2019-05-19T11:42:23.714Z,25.30
2019-05-19T11:43:27.609Z,25.38
2019-05-19T11:44:32.424Z,25.44
2019-05-19T11:45:35.083Z,25.45
2019-05-19T11:46:37.551Z,25.44
2019-05-19T11:47:42.008Z,25.52
2019-05-19T11:48:45.036Z,25.56
2019-05-19T11:49:47.730Z,25.63
2019-05-19T11:50:50.505Z,25.66
2019-05-19T11:51:53.701Z,25.65
2019-05-19T11:52:56.156Z,25.73
2019-05-19T11:53:58.468Z,25.68
2019-05-19T11:55:00.979Z,25.68
2019-05-19T11:56:06.594Z,25.71
2019-05-19T11:57:08.319Z,25.66
2019-05-19T11:58:10.402Z,25.59
2019-05-19T11:59:13.113Z,25.65
2019-05-19T12:00:17.347Z,25.62
2019-05-19T12:01:20.683Z,25.69
2019-05-19T12:02:23.154Z,25.77
2019-05-19T12:03:26.394Z,25.64
2019-05-19T12:04:30.290Z,25.69
2019-05-19T12:05:35.592Z,25.70
2019-05-19T12:06:39.987Z,25.73
2019-05-19T12:07:43.021Z,25.67
2019-05-19T12:08:45.393Z,25.62
2019-05-19T12:09:50.656Z,25.54
2019-05-19T12:10:53.421Z,25.66
2019-05-19T12:11:58.233Z,25.72
2019-05-19T12:13:01.154Z,25.73
2019-05-19T12:14:04.476Z,25.77
2019-05-19T12:15:08.601Z,25.82
2019-05-19T12:16:10.876Z,25.72
2019-05-19T12:17:13.821Z,25.77
2019-05-19T12:18:16.950Z,25.70
2019-05-19T12:19:19.885Z,25.80
2019-05-19T12:20:22.573Z,25.72
2019-05-19T12:21:25.609Z,25.85
2019-05-19T12:22:28.292Z,25.86
2019-05-19T12:23:31.358Z,25.89
2019-05-19T12:24:37.356Z,25.91
2019-05-19T12:25:40.449Z,25.82
2019-05-19T12:26:45.088Z,25.54
2019-05-19T12:27:49.297Z,25.38
2019-05-19T12:28:53.666Z,25.44
2019-05-19T12:29:56.847Z,25.30
2019-05-19T12:30:59.592Z,25.39
2019-05-19T12:32:02.381Z,25.22
2019-05-19T12:33:05.168Z,25.02
2019-05-19T12:34:07.897Z,24.85
2019-05-19T12:35:11.239Z,24.69
2019-05-19T12:36:14.554Z,24.51
2019-05-19T12:37:19.141Z,24.52
2019-05-19T12:38:22.148Z,24.60
2019-05-19T12:39:24.491Z,24.52
2019-05-19T12:40:26.881Z,24.55
2019-05-19T12:41:29.184Z,24.61
2019-05-19T12:42:32.323Z,24.48
2019-05-19T12:43:34.786Z,24.51
2019-05-19T12:44:37.065Z,24.49
2019-05-19T12:45:40.704Z,24.58
2019-05-19T12:46:43.513Z,24.70
2019-05-19T12:47:47.919Z,24.88
2019-05-19T12:48:51.208Z,25.02
2019-05-19T12:49:55.970Z,25.16
2019-05-19T12:50:58.906Z,25.30
2019-05-19T12:52:01.861Z,25.28
2019-05-19T12:53:05.176Z,25.34
2019-05-19T12:54:09.443Z,25.34
2019-05-19T12:55:11.920Z,25.43
2019-05-19T12:56:15.136Z,25.51
2019-05-19T12:57:16.849Z,25.47
2019-05-19T12:58:20.586Z,25.25
2019-05-19T12:59:23.208Z,25.12
2019-05-19T13:00:25.078Z,25.01
2019-05-19T13:01:32.769Z,25.06
2019-05-19T13:02:38.091Z,25.01
2019-05-19T13:03:42.439Z,25.16
2019-05-19T13:05:03.243Z,25.14
2019-05-19T13:05:49.982Z,25.16
2019-05-19T13:06:52.471Z,25.25
2019-05-19T13:07:56.898Z,25.21
2019-05-19T13:08:59.273Z,25.31
2019-05-19T13:10:01.414Z,25.40
2019-05-19T13:11:06.111Z,25.37
2019-05-19T13:12:08.509Z,25.38
2019-05-19T13:13:11.851Z,25.24
2019-05-19T13:14:15.025Z,24.91
2019-05-19T13:15:21.374Z,24.81
2019-05-19T13:16:24.237Z,24.86
2019-05-19T13:17:26.901Z,24.97
2019-05-19T13:18:29.281Z,25.09
2019-05-19T13:19:31.818Z,25.23
2019-05-19T13:20:34.812Z,25.19
2019-05-19T13:21:40.941Z,25.04
2019-05-19T13:22:45.574Z,25.14
2019-05-19T13:23:48.924Z,25.08
2019-05-19T13:24:51.203Z,25.18
2019-05-19T13:25:55.318Z,25.20
2019-05-19T13:26:57.514Z,25.25
2019-05-19T13:28:00.270Z,25.27
2019-05-19T13:29:03.444Z,25.35
2019-05-19T13:30:07.764Z,25.27
2019-05-19T13:31:10.022Z,25.16
2019-05-19T13:32:14.401Z,25.16
2019-05-19T13:33:17.237Z,25.28
2019-05-19T13:34:20.326Z,25.40